sensor_id;sensor_type;location;lat;lon;timestamp;pressure;altitude;pressure_sealevel;temperature;humidity
56630;BME280;42502;40.732;-74.254;2023-03-03T00:01:53;99840.69;;;19.10;36.35
56630;BME280;42502;40.732;-74.254;2023-03-03T00:03:54;99845.47;;;19.09;36.25
56630;BME280;42502;40.732;-74.254;2023-03-03T00:05:56;99846.66;;;19.08;36.36
56630;BME280;42502;40.732;-74.254;2023-03-03T00:07:58;99848.22;;;19.06;36.25
56630;BME280;42502;40.732;-74.254;2023-03-03T00:09:59;99857.03;;;19.08;36.12
56630;BME280;42502;40.732;-74.254;2023-03-03T00:12:00;99846.56;;;19.05;36.15
56630;BME280;42502;40.732;-74.254;2023-03-03T00:14:21;99865.00;;;19.06;36.37
56630;BME280;42502;40.732;-74.254;2023-03-03T00:18:34;99857.41;;;19.06;36.27
56630;BME280;42502;40.732;-74.254;2023-03-03T00:20:38;99865.00;;;19.06;36.25
56630;BME280;42502;40.732;-74.254;2023-03-03T00:22:39;99858.50;;;19.02;36.37
56630;BME280;42502;40.732;-74.254;2023-03-03T00:24:40;99863.38;;;19.05;36.43
56630;BME280;42502;40.732;-74.254;2023-03-03T00:26:48;99874.56;;;19.05;36.39
56630;BME280;42502;40.732;-74.254;2023-03-03T00:28:51;99868.06;;;19.00;36.58
56630;BME280;42502;40.732;-74.254;2023-03-03T00:30:56;99884.13;;;19.04;36.38
56630;BME280;42502;40.732;-74.254;2023-03-03T00:32:57;99892.09;;;19.02;36.61
56630;BME280;42502;40.732;-74.254;2023-03-03T00:35:25;99877.66;;;18.99;36.58
56630;BME280;42502;40.732;-74.254;2023-03-03T00:37:31;99883.34;;;19.03;36.44
56630;BME280;42502;40.732;-74.254;2023-03-03T00:39:36;99888.13;;;19.03;36.36
56630;BME280;42502;40.732;-74.254;2023-03-03T00:41:38;99904.09;;;19.02;36.68
56630;BME280;42502;40.732;-74.254;2023-03-03T00:43:39;99883.69;;;19.02;36.47
56630;BME280;42502;40.732;-74.254;2023-03-03T00:45:43;99907.25;;;19.00;36.43
56630;BME280;42502;40.732;-74.254;2023-03-03T00:47:45;99904.75;;;18.95;36.96
56630;BME280;42502;40.732;-74.254;2023-03-03T00:49:46;99910.78;;;18.97;37.37
56630;BME280;42502;40.732;-74.254;2023-03-03T00:51:47;99888.47;;;18.85;37.21
56630;BME280;42502;40.732;-74.254;2023-03-03T00:53:48;99913.69;;;19.01;37.17
56630;BME280;42502;40.732;-74.254;2023-03-03T00:55:50;99921.00;;;19.06;37.57
56630;BME280;42502;40.732;-74.254;2023-03-03T00:57:52;99916.56;;;19.05;37.84
56630;BME280;42502;40.732;-74.254;2023-03-03T00:59:56;99932.72;;;19.11;37.56
56630;BME280;42502;40.732;-74.254;2023-03-03T01:01:57;99940.75;;;19.13;38.00
56630;BME280;42502;40.732;-74.254;2023-03-03T01:03:57;99932.81;;;19.15;37.99
56630;BME280;42502;40.732;-74.254;2023-03-03T01:05:58;99931.19;;;19.14;38.04
56630;BME280;42502;40.732;-74.254;2023-03-03T01:08:02;99925.59;;;19.14;38.19
56630;BME280;42502;40.732;-74.254;2023-03-03T01:10:03;99948.97;;;19.22;38.00
56630;BME280;42502;40.732;-74.254;2023-03-03T01:12:08;99955.72;;;19.21;37.88
56630;BME280;42502;40.732;-74.254;2023-03-03T01:14:09;99968.69;;;19.25;37.97
56630;BME280;42502;40.732;-74.254;2023-03-03T01:16:10;99966.31;;;19.27;38.12
56630;BME280;42502;40.732;-74.254;2023-03-03T01:18:11;99969.56;;;19.29;37.95
56630;BME280;42502;40.732;-74.254;2023-03-03T01:20:14;99961.44;;;19.24;37.76
56630;BME280;42502;40.732;-74.254;2023-03-03T01:22:15;99981.94;;;19.28;38.10
56630;BME280;42502;40.732;-74.254;2023-03-03T01:24:15;99982.47;;;19.34;37.91
56630;BME280;42502;40.732;-74.254;2023-03-03T01:26:16;99976.06;;;19.33;37.84
56630;BME280;42502;40.732;-74.254;2023-03-03T01:28:17;99965.94;;;19.29;37.94
56630;BME280;42502;40.732;-74.254;2023-03-03T01:30:18;99983.00;;;19.40;37.98
56630;BME280;42502;40.732;-74.254;2023-03-03T01:32:19;99980.66;;;19.42;37.97
56630;BME280;42502;40.732;-74.254;2023-03-03T01:34:20;99979.78;;;19.38;37.82
56630;BME280;42502;40.732;-74.254;2023-03-03T01:36:25;99989.97;;;19.46;37.82
56630;BME280;42502;40.732;-74.254;2023-03-03T01:38:27;99996.38;;;19.46;37.63
56630;BME280;42502;40.732;-74.254;2023-03-03T01:40:30;100004.03;;;19.49;37.31
56630;BME280;42502;40.732;-74.254;2023-03-03T01:42:31;99995.63;;;19.49;37.31
56630;BME280;42502;40.732;-74.254;2023-03-03T01:44:34;99996.38;;;19.46;37.20
56630;BME280;42502;40.732;-74.254;2023-03-03T01:46:39;100006.84;;;19.49;36.97
56630;BME280;42502;40.732;-74.254;2023-03-03T01:48:44;100015.63;;;19.48;36.96
56630;BME280;42502;40.732;-74.254;2023-03-03T01:50:58;100013.53;;;19.45;36.85
56630;BME280;42502;40.732;-74.254;2023-03-03T01:53:05;100025.22;;;19.47;36.47
56630;BME280;42502;40.732;-74.254;2023-03-03T01:55:19;100026.38;;;19.46;36.71
56630;BME280;42502;40.732;-74.254;2023-03-03T01:57:31;100010.66;;;19.41;36.96
56630;BME280;42502;40.732;-74.254;2023-03-03T01:59:35;100025.47;;;19.42;36.71
56630;BME280;42502;40.732;-74.254;2023-03-03T02:01:38;100029.00;;;19.39;36.59
56630;BME280;42502;40.732;-74.254;2023-03-03T02:03:39;100027.53;;;19.45;36.71
56630;BME280;42502;40.732;-74.254;2023-03-03T02:05:41;100035.94;;;19.45;36.86
56630;BME280;42502;40.732;-74.254;2023-03-03T02:07:43;100039.94;;;19.44;36.90
56630;BME280;42502;40.732;-74.254;2023-03-03T02:09:54;100041.47;;;19.41;36.53
56630;BME280;42502;40.732;-74.254;2023-03-03T02:12:02;100048.34;;;19.44;36.76
56630;BME280;42502;40.732;-74.254;2023-03-03T02:14:04;100064.31;;;19.43;36.70
56630;BME280;42502;40.732;-74.254;2023-03-03T02:16:08;100063.53;;;19.43;36.70
56630;BME280;42502;40.732;-74.254;2023-03-03T02:18:14;100061.88;;;19.42;36.73
56630;BME280;42502;40.732;-74.254;2023-03-03T02:20:33;100063.06;;;19.41;36.58
56630;BME280;42502;40.732;-74.254;2023-03-03T02:22:46;100057.13;;;19.42;36.71
56630;BME280;42502;40.732;-74.254;2023-03-03T02:24:54;100069.13;;;19.43;36.50
56630;BME280;42502;40.732;-74.254;2023-03-03T02:26:58;100060.88;;;19.34;36.54
56630;BME280;42502;40.732;-74.254;2023-03-03T02:28:59;100065.31;;;19.35;36.42
56630;BME280;42502;40.732;-74.254;2023-03-03T02:31:00;100077.44;;;19.39;36.36
56630;BME280;42502;40.732;-74.254;2023-03-03T02:33:05;100073.09;;;19.42;36.47
56630;BME280;42502;40.732;-74.254;2023-03-03T02:35:29;100065.03;;;19.40;36.69
56630;BME280;42502;40.732;-74.254;2023-03-03T02:37:30;100078.97;;;19.37;36.51
56630;BME280;42502;40.732;-74.254;2023-03-03T02:39:31;100072.28;;;19.41;36.61
56630;BME280;42502;40.732;-74.254;2023-03-03T02:41:34;100082.69;;;19.41;36.50
56630;BME280;42502;40.732;-74.254;2023-03-03T02:45:53;100071.47;;;19.41;36.42
56630;BME280;42502;40.732;-74.254;2023-03-03T02:47:54;100084.56;;;19.37;36.19
56630;BME280;42502;40.732;-74.254;2023-03-03T02:49:55;100082.56;;;19.37;36.43
56630;BME280;42502;40.732;-74.254;2023-03-03T02:51:55;100081.31;;;19.34;36.49
56630;BME280;42502;40.732;-74.254;2023-03-03T02:53:56;100097.06;;;19.39;36.43
56630;BME280;42502;40.732;-74.254;2023-03-03T02:55:57;100085.72;;;19.35;36.95
56630;BME280;42502;40.732;-74.254;2023-03-03T02:58:00;100076.88;;;19.33;36.68
56630;BME280;42502;40.732;-74.254;2023-03-03T03:00:01;100093.06;;;19.40;36.83
56630;BME280;42502;40.732;-74.254;2023-03-03T03:02:02;100099.13;;;19.42;36.75
56630;BME280;42502;40.732;-74.254;2023-03-03T03:04:08;100104.38;;;19.44;36.79
56630;BME280;42502;40.732;-74.254;2023-03-03T03:06:09;100094.34;;;19.43;36.86
56630;BME280;42502;40.732;-74.254;2023-03-03T03:08:13;100103.53;;;19.43;36.75
56630;BME280;42502;40.732;-74.254;2023-03-03T03:10:14;100098.78;;;19.44;36.84
56630;BME280;42502;40.732;-74.254;2023-03-03T03:12:15;100098.78;;;19.44;36.77
56630;BME280;42502;40.732;-74.254;2023-03-03T03:14:18;100118.53;;;19.51;36.42
56630;BME280;42502;40.732;-74.254;2023-03-03T03:16:19;100111.78;;;19.52;36.21
56630;BME280;42502;40.732;-74.254;2023-03-03T03:18:20;100122.06;;;19.48;36.42
56630;BME280;42502;40.732;-74.254;2023-03-03T03:20:21;100139.34;;;19.50;36.36
56630;BME280;42502;40.732;-74.254;2023-03-03T03:22:24;100135.28;;;19.47;36.29
56630;BME280;42502;40.732;-74.254;2023-03-03T03:24:28;100135.28;;;19.47;36.08
56630;BME280;42502;40.732;-74.254;2023-03-03T03:26:29;100144.59;;;19.51;36.08
56630;BME280;42502;40.732;-74.254;2023-03-03T03:28:33;100157.69;;;19.47;36.08
56630;BME280;42502;40.732;-74.254;2023-03-03T03:30:34;100156.97;;;19.50;36.01
56630;BME280;42502;40.732;-74.254;2023-03-03T03:32:35;100166.16;;;19.51;36.17
56630;BME280;42502;40.732;-74.254;2023-03-03T03:34:39;100173.78;;;19.50;36.27
56630;BME280;42502;40.732;-74.254;2023-03-03T03:36:40;100168.16;;;19.50;36.11
56630;BME280;42502;40.732;-74.254;2023-03-03T03:38:42;100175.75;;;19.50;36.13
56630;BME280;42502;40.732;-74.254;2023-03-03T03:40:43;100178.81;;;19.45;36.11
56630;BME280;42502;40.732;-74.254;2023-03-03T03:42:44;100178.56;;;19.50;35.82
56630;BME280;42502;40.732;-74.254;2023-03-03T03:44:50;100172.03;;;19.46;36.14
56630;BME280;42502;40.732;-74.254;2023-03-03T03:46:51;100179.66;;;19.45;35.74
56630;BME280;42502;40.732;-74.254;2023-03-03T03:48:52;100186.97;;;19.50;35.79
56630;BME280;42502;40.732;-74.254;2023-03-03T03:50:53;100167.97;;;19.43;35.80
56630;BME280;42502;40.732;-74.254;2023-03-03T03:52:54;100169.97;;;19.43;35.68
56630;BME280;42502;40.732;-74.254;2023-03-03T03:54:55;100185.34;;;19.49;35.69
56630;BME280;42502;40.732;-74.254;2023-03-03T03:56:56;100170.31;;;19.41;35.60
56630;BME280;42502;40.732;-74.254;2023-03-03T03:58:57;100183.25;;;19.46;35.74
56630;BME280;42502;40.732;-74.254;2023-03-03T04:01:05;100181.63;;;19.45;35.88
56630;BME280;42502;40.732;-74.254;2023-03-03T04:03:06;100179.28;;;19.47;35.81
56630;BME280;42502;40.732;-74.254;2023-03-03T04:05:10;100176.38;;;19.43;35.45
56630;BME280;42502;40.732;-74.254;2023-03-03T04:07:10;100194.47;;;19.46;35.65
56630;BME280;42502;40.732;-74.254;2023-03-03T04:09:11;100183.03;;;19.39;35.51
56630;BME280;42502;40.732;-74.254;2023-03-03T04:11:15;100200.41;;;19.44;35.46
56630;BME280;42502;40.732;-74.254;2023-03-03T04:13:16;100196.34;;;19.42;35.59
56630;BME280;42502;40.732;-74.254;2023-03-03T04:15:17;100197.88;;;19.39;35.45
56630;BME280;42502;40.732;-74.254;2023-03-03T04:17:21;100208.03;;;19.44;35.38
56630;BME280;42502;40.732;-74.254;2023-03-03T04:19:24;100206.75;;;19.41;35.35
56630;BME280;42502;40.732;-74.254;2023-03-03T04:21:25;100207.53;;;19.42;35.25
56630;BME280;42502;40.732;-74.254;2023-03-03T04:23:27;100209.44;;;19.38;35.22
56630;BME280;42502;40.732;-74.254;2023-03-03T04:25:28;100222.75;;;19.41;35.08
56630;BME280;42502;40.732;-74.254;2023-03-03T04:27:29;100229.16;;;19.41;35.17
56630;BME280;42502;40.732;-74.254;2023-03-03T04:29:30;100224.34;;;19.42;35.15
56630;BME280;42502;40.732;-74.254;2023-03-03T04:31:31;100227.16;;;19.42;34.90
56630;BME280;42502;40.732;-74.254;2023-03-03T04:33:32;100223.09;;;19.39;35.22
56630;BME280;42502;40.732;-74.254;2023-03-03T04:35:33;100237.47;;;19.38;34.85
56630;BME280;42502;40.732;-74.254;2023-03-03T04:37:35;100240.34;;;19.41;34.91
56630;BME280;42502;40.732;-74.254;2023-03-03T04:39:36;100231.38;;;19.35;34.96
56630;BME280;42502;40.732;-74.254;2023-03-03T04:41:37;100242.84;;;19.30;35.01
56630;BME280;42502;40.732;-74.254;2023-03-03T04:43:38;100250.63;;;19.37;34.88
56630;BME280;42502;40.732;-74.254;2023-03-03T04:45:39;100252.28;;;19.38;35.01
56630;BME280;42502;40.732;-74.254;2023-03-03T04:47:40;100243.06;;;19.38;35.01
56630;BME280;42502;40.732;-74.254;2023-03-03T04:49:40;100245.88;;;19.38;34.80
56630;BME280;42502;40.732;-74.254;2023-03-03T04:51:42;100254.25;;;19.38;34.64
56630;BME280;42502;40.732;-74.254;2023-03-03T04:53:43;100257.78;;;19.34;34.79
56630;BME280;42502;40.732;-74.254;2023-03-03T04:55:44;100268.63;;;19.36;34.86
56630;BME280;42502;40.732;-74.254;2023-03-03T04:57:45;100260.81;;;19.29;34.87
56630;BME280;42502;40.732;-74.254;2023-03-03T04:59:45;100282.63;;;19.36;34.78
56630;BME280;42502;40.732;-74.254;2023-03-03T05:01:46;100279.72;;;19.32;34.68
56630;BME280;42502;40.732;-74.254;2023-03-03T05:03:48;100281.34;;;19.33;34.45
56630;BME280;42502;40.732;-74.254;2023-03-03T05:05:49;100285.78;;;19.34;34.58
56630;BME280;42502;40.732;-74.254;2023-03-03T05:07:50;100287.75;;;19.34;34.47
56630;BME280;42502;40.732;-74.254;2023-03-03T05:09:51;100286.94;;;19.33;34.60
56630;BME280;42502;40.732;-74.254;2023-03-03T05:11:52;100302.03;;;19.29;34.53
56630;BME280;42502;40.732;-74.254;2023-03-03T05:13:53;100274.38;;;19.27;34.76
56630;BME280;42502;40.732;-74.254;2023-03-03T05:15:56;100280.53;;;19.33;34.52
56630;BME280;42502;40.732;-74.254;2023-03-03T05:17:57;100281.69;;;19.32;34.46
56630;BME280;42502;40.732;-74.254;2023-03-03T05:19:58;100287.31;;;19.32;34.60
56630;BME280;42502;40.732;-74.254;2023-03-03T05:22:00;100293.25;;;19.30;34.50
56630;BME280;42502;40.732;-74.254;2023-03-03T05:24:01;100305.63;;;19.29;34.57
56630;BME280;42502;40.732;-74.254;2023-03-03T05:26:02;100299.13;;;19.25;34.71
56630;BME280;42502;40.732;-74.254;2023-03-03T05:28:03;100316.81;;;19.29;34.60
56630;BME280;42502;40.732;-74.254;2023-03-03T05:30:07;100322.34;;;19.26;34.74
56630;BME280;42502;40.732;-74.254;2023-03-03T05:32:08;100314.72;;;19.26;34.47
56630;BME280;42502;40.732;-74.254;2023-03-03T05:34:09;100315.22;;;19.28;34.47
56630;BME280;42502;40.732;-74.254;2023-03-03T05:36:10;100317.53;;;19.26;34.65
56630;BME280;42502;40.732;-74.254;2023-03-03T05:38:11;100332.72;;;19.25;34.61
56630;BME280;42502;40.732;-74.254;2023-03-03T05:40:13;100344.38;;;19.27;34.33
56630;BME280;42502;40.732;-74.254;2023-03-03T05:42:14;100353.59;;;19.28;34.50
56630;BME280;42502;40.732;-74.254;2023-03-03T05:44:15;100362.34;;;19.26;34.51
56630;BME280;42502;40.732;-74.254;2023-03-03T05:46:16;100346.97;;;19.20;34.59
56630;BME280;42502;40.732;-74.254;2023-03-03T05:48:17;100335.66;;;19.16;34.28
56630;BME280;42502;40.732;-74.254;2023-03-03T05:50:21;100335.88;;;19.24;34.41
56630;BME280;42502;40.732;-74.254;2023-03-03T05:52:22;100341.25;;;19.16;34.54
56630;BME280;42502;40.732;-74.254;2023-03-03T05:54:26;100354.91;;;19.18;34.11
56630;BME280;42502;40.732;-74.254;2023-03-03T05:56:27;100345.56;;;19.14;34.49
56630;BME280;42502;40.732;-74.254;2023-03-03T05:58:28;100368.66;;;19.23;34.30
56630;BME280;42502;40.732;-74.254;2023-03-03T06:00:29;100353.97;;;19.14;34.32
56630;BME280;42502;40.732;-74.254;2023-03-03T06:02:33;100355.72;;;19.18;34.29
56630;BME280;42502;40.732;-74.254;2023-03-03T06:04:34;100347.91;;;19.12;34.42
56630;BME280;42502;40.732;-74.254;2023-03-03T06:06:35;100362.94;;;19.20;34.35
56630;BME280;42502;40.732;-74.254;2023-03-03T06:08:36;100365.75;;;19.20;34.19
56630;BME280;42502;40.732;-74.254;2023-03-03T06:10:37;100351.16;;;19.14;33.88
56630;BME280;42502;40.732;-74.254;2023-03-03T06:12:38;100362.13;;;19.19;33.90
56630;BME280;42502;40.732;-74.254;2023-03-03T06:14:40;100364.00;;;19.15;33.97
56630;BME280;42502;40.732;-74.254;2023-03-03T06:16:41;100361.06;;;19.11;34.10
56630;BME280;42502;40.732;-74.254;2023-03-03T06:18:42;100376.47;;;19.17;34.18
56630;BME280;42502;40.732;-74.254;2023-03-03T06:20:43;100367.97;;;19.14;33.97
56630;BME280;42502;40.732;-74.254;2023-03-03T06:22:44;100354.69;;;19.11;33.82
56630;BME280;42502;40.732;-74.254;2023-03-03T06:24:44;100362.25;;;19.10;33.80
56630;BME280;42502;40.732;-74.254;2023-03-03T06:26:45;100375.56;;;19.13;33.82
56630;BME280;42502;40.732;-74.254;2023-03-03T06:28:46;100366.31;;;19.13;34.05
56630;BME280;42502;40.732;-74.254;2023-03-03T06:30:58;100357.03;;;19.09;34.00
56630;BME280;42502;40.732;-74.254;2023-03-03T06:32:59;100366.69;;;19.11;33.95
56630;BME280;42502;40.732;-74.254;2023-03-03T06:34:59;100382.69;;;19.11;33.67
56630;BME280;42502;40.732;-74.254;2023-03-03T06:37:00;100386.63;;;19.10;33.73
56630;BME280;42502;40.732;-74.254;2023-03-03T06:39:01;100397.03;;;19.09;33.52
56630;BME280;42502;40.732;-74.254;2023-03-03T06:41:06;100395.38;;;19.08;33.81
56630;BME280;42502;40.732;-74.254;2023-03-03T06:43:07;100399.38;;;19.07;33.61
56630;BME280;42502;40.732;-74.254;2023-03-03T06:45:09;100385.22;;;19.04;33.77
56630;BME280;42502;40.732;-74.254;2023-03-03T06:47:10;100396.91;;;19.06;33.82
56630;BME280;42502;40.732;-74.254;2023-03-03T06:49:11;100406.38;;;19.01;33.62
56630;BME280;42502;40.732;-74.254;2023-03-03T06:53:25;100421.97;;;19.02;33.55
56630;BME280;42502;40.732;-74.254;2023-03-03T06:55:26;100412.19;;;18.96;33.47
56630;BME280;42502;40.732;-74.254;2023-03-03T06:57:32;100421.19;;;19.02;33.60
56630;BME280;42502;40.732;-74.254;2023-03-03T06:59:33;100437.50;;;18.99;33.48
56630;BME280;42502;40.732;-74.254;2023-03-03T07:01:36;100448.38;;;19.01;33.43
56630;BME280;42502;40.732;-74.254;2023-03-03T07:03:38;100442.38;;;18.90;33.23
56630;BME280;42502;40.732;-74.254;2023-03-03T07:05:39;100449.53;;;19.00;33.16
56630;BME280;42502;40.732;-74.254;2023-03-03T07:07:40;100459.06;;;18.99;33.43
56630;BME280;42502;40.732;-74.254;2023-03-03T07:09:43;100463.88;;;18.98;33.34
56630;BME280;42502;40.732;-74.254;2023-03-03T07:11:48;100466.56;;;18.95;33.60
56630;BME280;42502;40.732;-74.254;2023-03-03T07:13:50;100458.97;;;18.95;33.37
56630;BME280;42502;40.732;-74.254;2023-03-03T07:15:53;100459.31;;;18.94;33.06
56630;BME280;42502;40.732;-74.254;2023-03-03T07:17:55;100455.34;;;18.95;33.32
56630;BME280;42502;40.732;-74.254;2023-03-03T07:20:00;100464.09;;;18.93;33.04
56630;BME280;42502;40.732;-74.254;2023-03-03T07:22:14;100472.50;;;18.93;33.67
56630;BME280;42502;40.732;-74.254;2023-03-03T07:24:25;100471.66;;;18.93;33.41
56630;BME280;42502;40.732;-74.254;2023-03-03T07:26:30;100479.25;;;18.92;33.45
56630;BME280;42502;40.732;-74.254;2023-03-03T07:28:32;100493.94;;;18.89;32.98
56630;BME280;42502;40.732;-74.254;2023-03-03T07:30:33;100497.91;;;18.88;33.13
56630;BME280;42502;40.732;-74.254;2023-03-03T07:32:40;100512.25;;;18.87;33.24
56630;BME280;42502;40.732;-74.254;2023-03-03T07:34:46;100516.34;;;18.89;33.23
56630;BME280;42502;40.732;-74.254;2023-03-03T07:36:50;100514.69;;;18.88;33.19
56630;BME280;42502;40.732;-74.254;2023-03-03T07:39:01;100520.16;;;18.85;33.16
56630;BME280;42502;40.732;-74.254;2023-03-03T07:41:11;100513.72;;;18.84;33.30
56630;BME280;42502;40.732;-74.254;2023-03-03T07:43:35;100517.34;;;18.85;33.33
56630;BME280;42502;40.732;-74.254;2023-03-03T07:45:39;100535.78;;;18.86;32.91
56630;BME280;42502;40.732;-74.254;2023-03-03T07:47:40;100529.59;;;18.80;32.85
56630;BME280;42502;40.732;-74.254;2023-03-03T07:49:41;100534.16;;;18.85;32.89
56630;BME280;42502;40.732;-74.254;2023-03-03T07:51:42;100528.06;;;18.82;32.90
56630;BME280;42502;40.732;-74.254;2023-03-03T07:53:43;100525.59;;;18.81;33.05
56630;BME280;42502;40.732;-74.254;2023-03-03T07:55:44;100522.34;;;18.79;32.95
56630;BME280;42502;40.732;-74.254;2023-03-03T07:57:45;100520.22;;;18.76;32.94
56630;BME280;42502;40.732;-74.254;2023-03-03T07:59:49;100530.75;;;18.79;32.75
56630;BME280;42502;40.732;-74.254;2023-03-03T08:01:55;100526.28;;;18.78;32.84
56630;BME280;42502;40.732;-74.254;2023-03-03T08:04:00;100541.94;;;18.79;32.70
56630;BME280;42502;40.732;-74.254;2023-03-03T08:08:32;100542.63;;;18.76;32.45
56630;BME280;42502;40.732;-74.254;2023-03-03T08:10:40;100545.78;;;18.74;32.45
56630;BME280;42502;40.732;-74.254;2023-03-03T08:12:42;100546.91;;;18.73;32.51
56630;BME280;42502;40.732;-74.254;2023-03-03T08:14:46;100556.34;;;18.69;32.57
56630;BME280;42502;40.732;-74.254;2023-03-03T08:16:47;100565.69;;;18.73;32.68
56630;BME280;42502;40.732;-74.254;2023-03-03T08:18:49;100566.84;;;18.72;32.66
56630;BME280;42502;40.732;-74.254;2023-03-03T08:20:54;100568.03;;;18.71;32.52
56630;BME280;42502;40.732;-74.254;2023-03-03T08:22:55;100568.03;;;18.71;32.60
56630;BME280;42502;40.732;-74.254;2023-03-03T08:24:56;100563.31;;;18.62;32.37
56630;BME280;42502;40.732;-74.254;2023-03-03T08:26:57;100584.34;;;18.69;32.34
56630;BME280;42502;40.732;-74.254;2023-03-03T08:28:58;100566.72;;;18.68;32.66
56630;BME280;42502;40.732;-74.254;2023-03-03T08:31:00;100557.38;;;18.64;32.32
56630;BME280;42502;40.732;-74.254;2023-03-03T08:33:01;100580.25;;;18.66;32.21
56630;BME280;42502;40.732;-74.254;2023-03-03T08:35:02;100578.50;;;18.61;32.57
56630;BME280;42502;40.732;-74.254;2023-03-03T08:37:03;100589.81;;;18.65;32.38
56630;BME280;42502;40.732;-74.254;2023-03-03T08:39:06;100604.13;;;18.63;32.30
56630;BME280;42502;40.732;-74.254;2023-03-03T08:41:10;100597.13;;;18.57;32.59
56630;BME280;42502;40.732;-74.254;2023-03-03T08:43:15;100612.88;;;18.62;32.37
56630;BME280;42502;40.732;-74.254;2023-03-03T08:45:21;100596.63;;;18.55;32.38
56630;BME280;42502;40.732;-74.254;2023-03-03T08:47:21;100614.72;;;18.58;32.27
56630;BME280;42502;40.732;-74.254;2023-03-03T08:49:22;100613.22;;;18.60;32.09
56630;BME280;42502;40.732;-74.254;2023-03-03T08:51:23;100620.81;;;18.60;32.26
56630;BME280;42502;40.732;-74.254;2023-03-03T08:53:26;100618.00;;;18.60;32.26
56630;BME280;42502;40.732;-74.254;2023-03-03T08:55:27;100615.75;;;18.53;32.19
56630;BME280;42502;40.732;-74.254;2023-03-03T08:57:28;100622.31;;;18.57;32.33
56630;BME280;42502;40.732;-74.254;2023-03-03T08:59:29;100619.69;;;18.52;31.96
56630;BME280;42502;40.732;-74.254;2023-03-03T09:01:31;100632.66;;;18.57;32.17
56630;BME280;42502;40.732;-74.254;2023-03-03T09:03:32;100637.44;;;18.56;32.13
56630;BME280;42502;40.732;-74.254;2023-03-03T09:05:34;100631.38;;;18.54;32.21
56630;BME280;42502;40.732;-74.254;2023-03-03T09:07:35;100643.72;;;18.53;32.08
56630;BME280;42502;40.732;-74.254;2023-03-03T09:09:35;100641.25;;;18.52;32.11
56630;BME280;42502;40.732;-74.254;2023-03-03T09:11:39;100657.25;;;18.51;32.10
56630;BME280;42502;40.732;-74.254;2023-03-03T09:13:43;100651.81;;;18.46;32.38
56630;BME280;42502;40.732;-74.254;2023-03-03T09:15:47;100644.94;;;18.43;32.27
56630;BME280;42502;40.732;-74.254;2023-03-03T09:17:49;100659.53;;;18.49;32.32
56630;BME280;42502;40.732;-74.254;2023-03-03T09:19:50;100670.25;;;18.47;32.05
56630;BME280;42502;40.732;-74.254;2023-03-03T09:21:53;100668.28;;;18.47;32.09
56630;BME280;42502;40.732;-74.254;2023-03-03T09:23:56;100656.28;;;18.47;32.10
56630;BME280;42502;40.732;-74.254;2023-03-03T09:26:44;100670.47;;;18.42;32.60
56630;BME280;42502;40.732;-74.254;2023-03-03T09:28:45;100675.38;;;18.45;31.91
56630;BME280;42502;40.732;-74.254;2023-03-03T09:30:50;100676.53;;;18.44;31.78
56630;BME280;42502;40.732;-74.254;2023-03-03T09:32:52;100659.81;;;18.35;31.71
56630;BME280;42502;40.732;-74.254;2023-03-03T09:34:55;100668.47;;;18.42;31.97
56630;BME280;42502;40.732;-74.254;2023-03-03T09:36:57;100654.22;;;18.35;31.67
56630;BME280;42502;40.732;-74.254;2023-03-03T09:38:59;100649.44;;;18.36;32.01
56630;BME280;42502;40.732;-74.254;2023-03-03T09:46:08;100649.13;;;18.37;32.25
56630;BME280;42502;40.732;-74.254;2023-03-03T09:51:29;100669.38;;;18.34;32.33
56630;BME280;42502;40.732;-74.254;2023-03-03T09:54:25;100688.09;;;18.34;32.21
56630;BME280;42502;40.732;-74.254;2023-03-03T09:56:33;100670.84;;;18.32;32.36
56630;BME280;42502;40.732;-74.254;2023-03-03T10:01:12;100697.19;;;18.31;32.15
56630;BME280;42502;40.732;-74.254;2023-03-03T10:22:18;100731.13;;;18.20;32.08
56630;BME280;42502;40.732;-74.254;2023-03-03T10:31:30;100741.34;;;18.16;31.97
56630;BME280;42502;40.732;-74.254;2023-03-03T10:40:48;100739.91;;;18.10;32.28
56630;BME280;42502;40.732;-74.254;2023-03-03T10:56:49;100761.47;;;18.01;32.31
56630;BME280;42502;40.732;-74.254;2023-03-03T11:01:28;100759.84;;;18.00;31.79
56630;BME280;42502;40.732;-74.254;2023-03-03T11:06:08;100742.75;;;17.92;31.80
56630;BME280;42502;40.732;-74.254;2023-03-03T11:08:45;100741.09;;;17.91;32.14
56630;BME280;42502;40.732;-74.254;2023-03-03T11:37:05;100713.50;;;17.81;31.81
56630;BME280;42502;40.732;-74.254;2023-03-03T11:39:11;100707.06;;;17.81;31.83
56630;BME280;42502;40.732;-74.254;2023-03-03T11:41:25;100715.81;;;17.79;32.06
56630;BME280;42502;40.732;-74.254;2023-03-03T11:43:50;100728.16;;;17.78;32.15
56630;BME280;42502;40.732;-74.254;2023-03-03T11:46:06;100748.38;;;17.75;31.87
56630;BME280;42502;40.732;-74.254;2023-03-03T11:48:20;100757.25;;;17.77;32.03
56630;BME280;42502;40.732;-74.254;2023-03-03T11:50:27;100765.16;;;17.75;31.88
56630;BME280;42502;40.732;-74.254;2023-03-03T11:55:09;100764.63;;;17.73;32.18
56630;BME280;42502;40.732;-74.254;2023-03-03T11:57:32;100746.25;;;17.72;32.03
56630;BME280;42502;40.732;-74.254;2023-03-03T11:59:48;100738.53;;;17.69;31.81
56630;BME280;42502;40.732;-74.254;2023-03-03T12:02:14;100756.09;;;17.69;32.33
56630;BME280;42502;40.732;-74.254;2023-03-03T12:04:46;100760.88;;;17.69;32.05
56630;BME280;42502;40.732;-74.254;2023-03-03T12:07:17;100756.44;;;17.68;31.96
56630;BME280;42502;40.732;-74.254;2023-03-03T12:11:47;100754.31;;;17.65;31.96
56630;BME280;42502;40.732;-74.254;2023-03-03T12:16:10;100762.03;;;17.59;32.06
56630;BME280;42502;40.732;-74.254;2023-03-03T12:25:37;100796.38;;;17.59;32.24